createdAt,value
2018-12-12T00:00:11.149Z,94.08
2018-12-12T00:02:53.264Z,94.18
2018-12-12T00:05:35.709Z,93.49
2018-12-12T00:08:18.281Z,93.66
2018-12-12T00:11:00.838Z,93.86
2018-12-12T00:13:43.401Z,94.09
2018-12-12T00:16:26.436Z,94.15
2018-12-12T00:19:08.519Z,94.55
2018-12-12T00:21:50.862Z,94.87
2018-12-12T00:24:32.625Z,94.12
2018-12-12T00:27:15.041Z,94.11
2018-12-12T00:29:57.012Z,94.13
2018-12-12T00:32:39.419Z,94.42
2018-12-12T00:35:21.859Z,94.60
2018-12-12T00:38:03.295Z,94.13
2018-12-12T00:40:44.874Z,93.50
2018-12-12T00:43:26.615Z,93.35
2018-12-12T00:46:09.021Z,93.17
2018-12-12T00:48:50.898Z,93.50
2018-12-12T00:51:33.480Z,93.91
2018-12-12T00:54:15.331Z,94.12
2018-12-12T00:56:57.205Z,93.72
2018-12-12T00:59:38.896Z,93.72
2018-12-12T01:02:21.479Z,94.45
2018-12-12T01:05:04.263Z,94.05
2018-12-12T01:07:46.438Z,94.16
2018-12-12T01:10:28.754Z,93.86
2018-12-12T01:13:10.621Z,93.78
2018-12-12T01:15:53.376Z,94.01
2018-12-12T01:18:35.197Z,93.50
2018-12-12T01:21:17.324Z,93.09
2018-12-12T01:23:59.346Z,93.56
2018-12-12T01:26:41.176Z,93.65
2018-12-12T01:29:23.372Z,93.62
2018-12-12T01:32:05.521Z,93.52
2018-12-12T01:34:47.724Z,93.30
2018-12-12T01:37:29.435Z,93.12
2018-12-12T01:40:12.028Z,93.09
2018-12-12T01:42:54.741Z,93.37
2018-12-12T01:45:37.210Z,93.82
2018-12-12T01:48:19.588Z,93.80
2018-12-12T01:51:01.379Z,93.35
2018-12-12T01:53:46.520Z,93.72
2018-12-12T01:56:28.225Z,93.72
2018-12-12T01:59:10.673Z,93.82
2018-12-12T02:01:53.854Z,92.94
2018-12-12T02:04:35.848Z,93.29
2018-12-12T02:07:18.105Z,93.14
2018-12-12T02:10:00.968Z,92.66
2018-12-12T02:12:42.788Z,92.68
2018-12-12T02:15:24.573Z,92.35
2018-12-12T02:18:07.164Z,92.69
2018-12-12T02:20:49.411Z,92.74
2018-12-12T02:23:30.873Z,93.08
2018-12-12T02:26:12.888Z,92.85
2018-12-12T02:28:55.188Z,92.95
2018-12-12T02:31:37.605Z,93.03
2018-12-12T02:34:20.194Z,93.33
2018-12-12T02:37:02.562Z,93.78
2018-12-12T02:39:44.994Z,94.67
2018-12-12T02:42:26.566Z,95.05
2018-12-12T02:45:09.819Z,95.06
2018-12-12T02:47:51.714Z,94.74
2018-12-12T02:50:33.214Z,94.59
2018-12-12T02:53:14.952Z,94.23
2018-12-12T02:55:58.217Z,94.35
2018-12-12T02:58:40.129Z,94.06
2018-12-12T03:01:22.650Z,94.49
2018-12-12T03:04:05.053Z,94.34
2018-12-12T03:06:46.628Z,94.70
2018-12-12T03:09:28.439Z,94.73
2018-12-12T03:12:10.624Z,94.47
2018-12-12T03:14:52.523Z,94.54
2018-12-12T03:17:34.609Z,94.37
2018-12-12T03:20:16.127Z,94.07
2018-12-12T03:22:58.423Z,95.96
2018-12-12T03:25:40.425Z,96.58
2018-12-12T03:28:22.219Z,96.60
2018-12-12T03:31:04.177Z,96.25
2018-12-12T03:33:45.902Z,96.21
2018-12-12T03:36:28.400Z,95.52
2018-12-12T03:39:10.864Z,95.64
2018-12-12T03:41:53.520Z,95.83
2018-12-12T03:44:35.733Z,96.87
2018-12-12T03:47:18.350Z,97.53
2018-12-12T03:50:01.233Z,97.68
2018-12-12T03:52:43.579Z,97.56
2018-12-12T03:55:25.968Z,97.26
2018-12-12T03:58:07.636Z,96.74
2018-12-12T04:00:50.554Z,96.44
2018-12-12T04:03:32.873Z,96.12
2018-12-12T04:06:15.636Z,96.17
2018-12-12T04:08:58.009Z,96.39
2018-12-12T04:11:40.411Z,96.88
2018-12-12T04:14:22.102Z,97.22
2018-12-12T04:17:04.612Z,96.81
2018-12-12T04:19:47.175Z,97.17
2018-12-12T04:22:29.980Z,97.07
2018-12-12T04:25:12.502Z,97.03
2018-12-12T04:27:54.448Z,96.98
2018-12-12T04:30:36.137Z,95.96
2018-12-12T04:33:18.007Z,95.50
2018-12-12T04:36:00.608Z,95.58
2018-12-12T04:38:42.246Z,95.87
2018-12-12T04:41:24.302Z,95.83
2018-12-12T04:44:06.694Z,94.78
2018-12-12T04:46:49.240Z,94.17
2018-12-12T04:49:33.082Z,93.77
2018-12-12T04:52:15.679Z,93.20
2018-12-12T04:54:57.626Z,93.41
2018-12-12T04:57:39.488Z,93.29
2018-12-12T05:00:22.210Z,93.05
2018-12-12T05:03:05.102Z,92.78
2018-12-12T05:05:47.030Z,92.41
2018-12-12T05:08:29.229Z,92.44
2018-12-12T05:11:10.804Z,92.27
2018-12-12T05:13:52.497Z,92.39
2018-12-12T05:16:33.988Z,91.79
2018-12-12T05:19:15.793Z,92.14
2018-12-12T05:21:58.099Z,92.21
2018-12-12T05:24:39.974Z,90.41
2018-12-12T05:27:22.182Z,90.33
2018-12-12T05:30:03.812Z,90.23
2018-12-12T05:32:45.365Z,90.43
2018-12-12T05:35:27.776Z,90.28
2018-12-12T05:38:10.085Z,90.75
2018-12-12T05:40:52.174Z,89.94
2018-12-12T05:43:34.581Z,89.99
2018-12-12T05:46:16.907Z,89.33
2018-12-12T05:48:59.845Z,89.28
2018-12-12T05:51:42.218Z,89.10
2018-12-12T05:54:24.211Z,88.13
2018-12-12T05:57:06.160Z,88.77
2018-12-12T05:59:48.005Z,88.30
2018-12-12T06:02:30.825Z,88.83
2018-12-12T06:05:12.620Z,89.37
2018-12-12T06:07:54.404Z,88.80
2018-12-12T06:10:35.830Z,88.87
2018-12-12T06:13:17.821Z,89.02
2018-12-12T06:15:59.806Z,88.87
2018-12-12T06:18:41.170Z,88.47
2018-12-12T06:21:22.979Z,88.38
2018-12-12T06:24:05.467Z,88.93
2018-12-12T06:26:47.968Z,88.72
2018-12-12T06:29:30.114Z,88.63
2018-12-12T06:32:11.767Z,88.79
2018-12-12T06:34:54.674Z,89.27
2018-12-12T06:37:37.037Z,89.43
2018-12-12T06:40:19.483Z,89.20
2018-12-12T06:43:02.009Z,89.82
2018-12-12T06:45:44.591Z,90.60
2018-12-12T06:48:26.905Z,90.30
2018-12-12T06:51:10.101Z,90.35
2018-12-12T06:53:52.051Z,90.05
2018-12-12T06:56:34.859Z,90.68
2018-12-12T06:59:17.072Z,90.65
2018-12-12T07:01:58.949Z,91.14
2018-12-12T07:04:41.631Z,90.97
2018-12-12T07:07:24.034Z,90.43
2018-12-12T07:10:06.538Z,90.64
2018-12-12T07:12:48.041Z,90.17
2018-12-12T07:15:29.562Z,90.06
2018-12-12T07:18:12.026Z,90.77
2018-12-12T07:20:53.952Z,89.97
2018-12-12T07:23:36.780Z,89.97
2018-12-12T07:26:18.852Z,90.61
2018-12-12T07:29:01.106Z,90.00
2018-12-12T07:31:44.006Z,90.23
2018-12-12T07:34:26.808Z,89.42
2018-12-12T07:37:08.735Z,89.62
2018-12-12T07:39:51.731Z,89.35
2018-12-12T07:42:33.831Z,89.54
2018-12-12T07:45:16.642Z,89.29
2018-12-12T07:48:01.575Z,89.52
2018-12-12T07:50:44.075Z,89.76
2018-12-12T07:53:26.688Z,88.88
2018-12-12T07:56:08.462Z,88.75
2018-12-12T07:58:50.948Z,89.33
2018-12-12T08:01:33.509Z,90.42
2018-12-12T08:04:15.762Z,89.66
2018-12-12T08:06:57.801Z,88.98
2018-12-12T08:09:41.082Z,89.21
2018-12-12T08:12:23.617Z,88.42
2018-12-12T08:15:05.610Z,88.22
2018-12-12T08:17:47.505Z,88.18
2018-12-12T08:20:29.593Z,88.46
2018-12-12T08:23:12.277Z,88.03
2018-12-12T08:25:54.354Z,88.00
2018-12-12T08:28:36.019Z,88.73
2018-12-12T08:31:18.304Z,88.81
2018-12-12T08:33:59.813Z,88.58
2018-12-12T08:36:41.623Z,88.36
2018-12-12T08:39:23.409Z,88.72
2018-12-12T08:42:07.897Z,87.83
2018-12-12T08:44:50.556Z,87.54
2018-12-12T08:47:32.657Z,87.27
2018-12-12T08:50:14.561Z,87.41
2018-12-12T08:52:56.661Z,88.55
2018-12-12T08:55:38.825Z,88.14
2018-12-12T08:58:20.855Z,89.09
2018-12-12T09:01:02.354Z,87.86
2018-12-12T09:03:44.124Z,86.83
2018-12-12T09:06:26.815Z,87.28
2018-12-12T09:09:09.633Z,87.87
2018-12-12T09:11:51.939Z,87.21
2018-12-12T09:14:34.084Z,88.12
2018-12-12T09:17:15.798Z,86.59
2018-12-12T09:19:58.365Z,87.35
2018-12-12T09:22:40.806Z,87.83
2018-12-12T09:25:22.745Z,86.75
2018-12-12T09:28:05.481Z,85.64
2018-12-12T09:30:47.645Z,85.99
2018-12-12T09:33:30.031Z,85.94
2018-12-12T09:36:11.933Z,85.81
2018-12-12T09:38:54.202Z,85.73
2018-12-12T09:41:35.798Z,85.11
2018-12-12T09:44:17.450Z,85.65
2018-12-12T09:46:59.873Z,86.40
2018-12-12T09:49:41.569Z,85.56
2018-12-12T09:52:24.078Z,86.83
2018-12-12T09:55:05.503Z,85.58
2018-12-12T09:57:46.924Z,85.26
2018-12-12T10:00:28.894Z,85.47
2018-12-12T10:03:10.946Z,85.85
2018-12-12T10:05:53.223Z,86.10
2018-12-12T10:08:35.181Z,85.34
2018-12-12T10:11:16.946Z,84.86
2018-12-12T10:13:59.161Z,84.01
2018-12-12T10:16:41.245Z,84.44
2018-12-12T10:19:22.980Z,84.20
2018-12-12T10:22:05.105Z,84.38
2018-12-12T10:24:47.934Z,83.08
2018-12-12T10:27:30.176Z,82.61
2018-12-12T10:30:12.559Z,85.48
2018-12-12T10:32:55.390Z,84.19
2018-12-12T10:35:37.488Z,84.86
2018-12-12T10:38:19.726Z,85.12
2018-12-12T10:41:01.465Z,87.70
2018-12-12T10:43:43.897Z,86.58
2018-12-12T10:46:26.469Z,86.54
2018-12-12T10:49:09.301Z,86.53
2018-12-12T10:51:51.743Z,86.77
2018-12-12T10:54:33.805Z,87.28
2018-12-12T10:57:15.411Z,87.57
2018-12-12T10:59:57.896Z,87.76
2018-12-12T11:02:45.747Z,88.18
2018-12-12T11:05:28.294Z,86.95
2018-12-12T11:08:10.342Z,87.60
2018-12-12T11:10:52.579Z,87.08
2018-12-12T11:13:35.675Z,86.37
2018-12-12T11:16:18.324Z,86.99
2018-12-12T11:19:00.603Z,86.97
2018-12-12T11:21:42.765Z,86.95
2018-12-12T11:24:24.882Z,86.12
2018-12-12T11:27:07.009Z,83.20
2018-12-12T11:29:48.891Z,82.40
2018-12-12T11:32:31.418Z,80.81
2018-12-12T11:35:14.102Z,83.82
2018-12-12T11:37:57.330Z,86.08
2018-12-12T11:40:39.124Z,84.68
2018-12-12T11:43:29.282Z,85.49
2018-12-12T11:46:19.226Z,84.75
2018-12-12T11:49:01.909Z,83.60
2018-12-12T11:51:44.112Z,83.22
2018-12-12T11:54:26.814Z,83.49
2018-12-12T11:57:09.298Z,84.43
2018-12-12T11:59:51.249Z,83.15
2018-12-12T12:02:35.739Z,83.85
2018-12-12T12:05:39.502Z,82.45
2018-12-12T12:11:32.407Z,83.58
2018-12-12T12:14:14.229Z,82.82
2018-12-12T12:16:57.179Z,82.73
2018-12-12T12:19:39.086Z,82.46
2018-12-12T12:22:20.810Z,81.70
2018-12-12T12:25:03.454Z,80.09
2018-12-12T12:27:45.725Z,80.46
2018-12-12T12:30:27.814Z,77.86
2018-12-12T12:33:09.502Z,78.42
2018-12-12T12:35:52.010Z,77.98
2018-12-12T12:38:34.322Z,75.62
2018-12-12T12:41:16.207Z,76.72
2018-12-12T12:43:58.588Z,71.97
2018-12-12T12:46:40.938Z,75.25
2018-12-12T12:49:22.685Z,76.05
2018-12-12T12:52:04.909Z,76.56
2018-12-12T12:54:47.313Z,77.06
2018-12-12T12:57:31.809Z,76.99
2018-12-12T13:00:15.674Z,76.44
2018-12-12T13:02:59.617Z,75.75
2018-12-12T13:05:44.384Z,71.68
2018-12-12T13:08:26.597Z,68.21
2018-12-12T13:11:14.781Z,67.40
2018-12-12T13:13:56.556Z,69.40
2018-12-12T13:16:40.183Z,70.86
2018-12-12T13:19:22.481Z,73.94
2018-12-12T13:22:06.840Z,71.82
2018-12-12T13:24:53.781Z,67.27
2018-12-12T13:27:36.494Z,69.02
2018-12-12T13:30:19.337Z,69.16
2018-12-12T13:33:02.420Z,73.30
2018-12-12T13:35:47.144Z,75.27
2018-12-12T13:38:30.541Z,78.36
2018-12-12T13:41:13.993Z,78.32
2018-12-12T13:43:57.544Z,79.69
2018-12-12T13:46:41.585Z,80.42
2018-12-12T13:49:23.894Z,81.33
2018-12-12T13:52:09.103Z,81.26
2018-12-12T13:54:51.800Z,80.76
2018-12-12T13:57:35.166Z,75.32
2018-12-12T14:00:18.353Z,76.59
2018-12-12T14:03:00.884Z,72.29
2018-12-12T14:05:43.548Z,71.81
2018-12-12T14:08:26.204Z,70.19
2018-12-12T14:11:08.612Z,70.96
2018-12-12T14:13:52.597Z,73.20
2018-12-12T14:16:35.284Z,76.03
2018-12-12T14:19:16.760Z,77.68
2018-12-12T14:21:58.291Z,79.66
2018-12-12T14:24:39.775Z,80.65
2018-12-12T14:27:21.703Z,80.89
2018-12-12T14:30:05.415Z,80.56
2018-12-12T14:32:49.410Z,81.80
2018-12-12T14:35:32.849Z,80.99
2018-12-12T14:38:14.997Z,81.88
2018-12-12T14:40:57.177Z,82.90
2018-12-12T14:43:38.740Z,82.92
2018-12-12T14:46:21.642Z,82.84
2018-12-12T14:49:04.487Z,83.21
2018-12-12T14:51:46.655Z,84.21
2018-12-12T14:54:29.594Z,84.17
2018-12-12T14:57:11.223Z,84.27
2018-12-12T14:59:53.764Z,84.86
2018-12-12T15:02:35.472Z,84.95
2018-12-12T15:05:20.513Z,85.49
2018-12-12T15:08:02.458Z,85.71
2018-12-12T15:10:44.830Z,86.27
2018-12-12T15:13:26.511Z,86.01
2018-12-12T15:16:07.857Z,86.91
2018-12-12T15:18:49.514Z,86.72
2018-12-12T15:21:32.372Z,87.20
2018-12-12T15:24:14.130Z,87.92
2018-12-12T15:26:55.945Z,87.79
2018-12-12T15:29:37.407Z,87.84
2018-12-12T15:32:18.811Z,87.64
2018-12-12T15:35:00.607Z,88.11
2018-12-12T15:37:42.827Z,88.31
2018-12-12T15:40:25.014Z,89.03
2018-12-12T15:43:06.901Z,89.27
2018-12-12T15:45:48.582Z,89.26
2018-12-12T15:48:30.070Z,89.55
2018-12-12T15:51:11.482Z,90.19
2018-12-12T15:53:54.936Z,89.51
2018-12-12T15:56:36.697Z,89.83
2018-12-12T15:59:22.249Z,90.12
2018-12-12T16:02:04.631Z,90.04
2018-12-12T16:04:49.134Z,89.34
2018-12-12T16:07:37.078Z,88.60
2018-12-12T16:10:20.781Z,88.64
2018-12-12T16:13:03.592Z,88.19
2018-12-12T16:15:45.838Z,87.72
2018-12-12T16:18:28.494Z,87.97
2018-12-12T16:21:11.014Z,87.75
2018-12-12T16:23:53.878Z,87.85
2018-12-12T16:26:35.402Z,88.62
2018-12-12T16:29:17.168Z,87.93
2018-12-12T16:31:59.731Z,88.17
2018-12-12T16:34:42.854Z,87.40
2018-12-12T16:37:24.469Z,87.49
2018-12-12T16:40:07.339Z,87.68
2018-12-12T16:42:50.248Z,87.20
2018-12-12T16:45:32.284Z,87.40
2018-12-12T16:48:15.372Z,87.67
2018-12-12T16:50:57.122Z,88.40
2018-12-12T16:53:40.510Z,87.68
2018-12-12T16:56:22.027Z,88.53
2018-12-12T16:59:04.249Z,88.04
2018-12-12T17:01:47.025Z,87.60
2018-12-12T17:04:29.764Z,87.69
2018-12-12T17:07:12.148Z,87.87
2018-12-12T17:09:54.806Z,88.31
2018-12-12T17:12:38.044Z,88.09
2018-12-12T17:15:20.094Z,87.95
2018-12-12T17:18:04.948Z,88.47
2018-12-12T17:20:50.564Z,88.62
2018-12-12T17:23:33.099Z,88.75
2018-12-12T17:26:14.998Z,88.86
2018-12-12T17:28:58.407Z,89.62
2018-12-12T17:31:40.570Z,89.90
2018-12-12T17:34:22.501Z,90.47
2018-12-12T17:37:05.494Z,90.94
2018-12-12T17:39:49.045Z,90.97
2018-12-12T17:42:31.606Z,91.05
2018-12-12T17:45:19.008Z,91.01
2018-12-12T17:48:04.729Z,91.36
2018-12-12T17:50:47.863Z,91.34
2018-12-12T17:53:30.471Z,91.38
2018-12-12T17:56:12.415Z,91.61
2018-12-12T17:58:53.991Z,91.92
2018-12-12T18:01:35.533Z,92.76
2018-12-12T18:04:17.911Z,92.41
2018-12-12T18:06:59.645Z,92.84
2018-12-12T18:09:41.541Z,92.71
2018-12-12T18:12:23.701Z,93.39
2018-12-12T18:15:06.087Z,93.15
2018-12-12T18:17:47.777Z,93.46
2018-12-12T18:20:30.662Z,93.34
2018-12-12T18:23:13.210Z,93.40
2018-12-12T18:25:55.322Z,93.88
2018-12-12T18:28:38.106Z,94.27
2018-12-12T18:31:21.026Z,93.84
2018-12-12T18:34:03.105Z,93.90
2018-12-12T18:36:45.222Z,94.25
2018-12-12T18:39:27.407Z,94.42
2018-12-12T18:42:09.555Z,95.01
2018-12-12T18:44:52.060Z,95.20
2018-12-12T18:47:34.741Z,95.12
2018-12-12T18:50:17.362Z,94.82
2018-12-12T18:52:59.554Z,94.76
2018-12-12T18:55:41.860Z,94.96
2018-12-12T18:58:24.106Z,94.90
2018-12-12T19:01:07.598Z,95.05
2018-12-12T19:03:49.538Z,95.34
2018-12-12T19:06:32.617Z,95.59
2018-12-12T19:09:14.596Z,95.69
2018-12-12T19:11:58.028Z,95.87
2018-12-12T19:14:45.465Z,95.71
2018-12-12T19:17:27.969Z,95.71
2018-12-12T19:20:11.681Z,95.50
2018-12-12T19:22:54.539Z,95.57
2018-12-12T19:25:36.418Z,95.59
2018-12-12T19:28:19.555Z,95.65
2018-12-12T19:31:02.391Z,95.87
2018-12-12T19:33:44.633Z,95.71
2018-12-12T19:36:26.720Z,95.80
2018-12-12T19:39:10.295Z,95.95
2018-12-12T19:41:52.549Z,95.70
2018-12-12T19:44:34.958Z,95.56
2018-12-12T19:47:19.877Z,95.67
2018-12-12T19:50:03.942Z,95.96
2018-12-12T19:52:47.040Z,95.62
2018-12-12T19:55:31.552Z,95.36
2018-12-12T19:58:16.841Z,95.57
2018-12-12T20:00:59.441Z,95.56
2018-12-12T20:03:41.851Z,95.11
2018-12-12T20:06:24.570Z,95.55
2018-12-12T20:09:07.749Z,96.02
2018-12-12T20:11:49.490Z,96.38
2018-12-12T20:14:31.911Z,96.83
2018-12-12T20:17:14.466Z,96.69
2018-12-12T20:19:55.950Z,97.11
2018-12-12T20:22:38.030Z,97.15
2018-12-12T20:25:20.292Z,97.27
2018-12-12T20:28:01.930Z,97.34
2018-12-12T20:30:44.807Z,97.46
2018-12-12T20:33:27.270Z,97.45
2018-12-12T20:36:09.511Z,97.32
2018-12-12T20:38:51.908Z,96.96
2018-12-12T20:41:34.170Z,96.66
2018-12-12T20:44:16.778Z,96.85
2018-12-12T20:46:59.218Z,97.31
2018-12-12T20:49:41.062Z,97.22
2018-12-12T20:52:24.421Z,97.04
2018-12-12T20:55:06.147Z,97.21
2018-12-12T20:57:48.539Z,97.26
2018-12-12T21:00:29.994Z,97.25
2018-12-12T21:03:11.820Z,96.79
2018-12-12T21:05:54.735Z,96.92
2018-12-12T21:08:36.940Z,96.77
2018-12-12T21:11:18.571Z,96.59
2018-12-12T21:14:01.580Z,96.24
2018-12-12T21:16:43.420Z,96.06
2018-12-12T21:19:25.242Z,95.75
2018-12-12T21:22:37.422Z,95.39
2018-12-12T21:28:57.303Z,95.46
2018-12-12T21:31:40.547Z,95.09
2018-12-12T21:34:22.439Z,94.96
2018-12-12T21:37:05.373Z,94.71
2018-12-12T21:39:47.576Z,94.60
2018-12-12T21:42:30.478Z,94.78
2018-12-12T21:45:13.738Z,94.63
2018-12-12T21:47:56.579Z,95.04
2018-12-12T21:50:39.253Z,94.95
2018-12-12T21:53:21.358Z,94.29
2018-12-12T21:56:03.790Z,93.92
2018-12-12T21:58:45.964Z,93.83
2018-12-12T22:01:28.357Z,93.48
2018-12-12T22:04:10.367Z,92.93
2018-12-12T22:06:52.966Z,93.28
2018-12-12T22:09:35.375Z,93.42
2018-12-12T22:12:18.136Z,93.53
2018-12-12T22:15:00.983Z,93.79
2018-12-12T22:17:42.751Z,93.62
2018-12-12T22:20:25.483Z,93.50
2018-12-12T22:23:08.225Z,93.36
2018-12-12T22:25:50.794Z,92.91
2018-12-12T22:28:33.119Z,92.21
2018-12-12T22:31:15.923Z,92.46
2018-12-12T22:33:58.952Z,92.21
2018-12-12T22:36:41.923Z,92.68
2018-12-12T22:39:24.131Z,92.36
2018-12-12T22:42:07.435Z,92.26
2018-12-12T22:44:49.852Z,92.24
2018-12-12T22:47:33.136Z,92.17
2018-12-12T22:50:15.607Z,91.99
2018-12-12T22:52:57.839Z,92.29
2018-12-12T22:55:42.680Z,92.46
2018-12-12T22:58:24.991Z,92.05
2018-12-12T23:01:12.495Z,91.28
2018-12-12T23:03:55.223Z,91.74
2018-12-12T23:06:37.435Z,91.34
2018-12-12T23:09:20.976Z,91.33
2018-12-12T23:12:04.809Z,91.51
2018-12-12T23:14:47.228Z,91.80
2018-12-12T23:17:29.909Z,91.78
2018-12-12T23:20:12.276Z,91.87
2018-12-12T23:22:54.887Z,92.19
2018-12-12T23:25:37.812Z,91.82
2018-12-12T23:28:20.472Z,91.46
2018-12-12T23:31:03.398Z,91.67
2018-12-12T23:33:46.179Z,91.55
2018-12-12T23:36:28.279Z,91.49
2018-12-12T23:39:11.051Z,91.89
2018-12-12T23:41:53.360Z,92.11
2018-12-12T23:44:35.304Z,92.08
2018-12-12T23:47:17.627Z,92.17
2018-12-12T23:49:59.692Z,91.94
2018-12-12T23:52:42.001Z,92.15
2018-12-12T23:55:25.091Z,92.54
2018-12-12T23:58:07.023Z,92.59
